createdAt,value
2019-02-07T00:00:05.298Z,5.48
2019-02-07T00:00:38.375Z,5.52
2019-02-07T00:01:09.583Z,5.56
2019-02-07T00:01:40.787Z,5.58
2019-02-07T00:02:12.051Z,5.62
2019-02-07T00:02:43.272Z,5.63
2019-02-07T00:03:14.522Z,5.65
2019-02-07T00:03:45.748Z,5.65
2019-02-07T00:04:16.956Z,5.66
2019-02-07T00:04:48.192Z,5.67
2019-02-07T00:05:19.444Z,5.68
2019-02-07T00:05:50.692Z,5.69
2019-02-07T00:06:22.400Z,5.72
2019-02-07T00:06:54.689Z,5.73
2019-02-07T00:07:26.177Z,5.74
2019-02-07T00:08:04.508Z,5.77
2019-02-07T00:08:35.703Z,5.76
2019-02-07T00:09:06.914Z,5.77
2019-02-07T00:09:38.123Z,5.80
2019-02-07T00:10:09.363Z,5.80
2019-02-07T00:10:40.573Z,5.80
2019-02-07T00:11:11.790Z,5.80
2019-02-07T00:11:43.000Z,5.82
2019-02-07T00:12:14.257Z,5.83
2019-02-07T00:12:45.474Z,5.84
2019-02-07T00:13:16.952Z,5.81
2019-02-07T00:13:48.211Z,5.82
2019-02-07T00:14:19.437Z,5.82
2019-02-07T00:14:50.658Z,5.83
2019-02-07T00:15:21.882Z,5.82
2019-02-07T00:15:53.103Z,5.80
2019-02-07T00:16:24.320Z,5.78
2019-02-07T00:16:55.528Z,5.80
2019-02-07T00:17:26.791Z,5.81
2019-02-07T00:17:58.003Z,5.80
2019-02-07T00:18:29.202Z,5.80
2019-02-07T00:19:00.609Z,5.81
2019-02-07T00:19:31.879Z,5.80
2019-02-07T00:20:03.107Z,5.77
2019-02-07T00:20:34.310Z,5.80
2019-02-07T00:21:05.518Z,5.78
2019-02-07T00:21:36.714Z,5.80
2019-02-07T00:22:07.915Z,5.77
2019-02-07T00:22:39.462Z,5.73
2019-02-07T00:23:10.673Z,5.76
2019-02-07T00:23:41.920Z,5.77
2019-02-07T00:24:13.159Z,5.77
2019-02-07T00:24:45.080Z,5.79
2019-02-07T00:25:16.301Z,5.80
2019-02-07T00:25:47.499Z,5.79
2019-02-07T00:26:18.696Z,5.80
2019-02-07T00:26:49.908Z,5.79
2019-02-07T00:27:21.109Z,5.77
2019-02-07T00:27:52.363Z,5.79
2019-02-07T00:28:23.575Z,5.83
2019-02-07T00:28:54.802Z,5.83
2019-02-07T00:29:26.017Z,5.83
2019-02-07T00:29:57.237Z,5.84
2019-02-07T00:30:28.725Z,5.80
2019-02-07T00:30:59.928Z,5.80
2019-02-07T00:31:31.134Z,5.81
2019-02-07T00:32:02.393Z,5.80
2019-02-07T00:32:33.592Z,5.82
2019-02-07T00:33:04.805Z,5.82
2019-02-07T00:33:36.015Z,5.84
2019-02-07T00:34:07.227Z,5.86
2019-02-07T00:34:38.427Z,5.87
2019-02-07T00:35:09.630Z,5.89
2019-02-07T00:35:40.831Z,5.91
2019-02-07T00:36:13.708Z,5.90
2019-02-07T00:36:44.929Z,5.88
2019-02-07T00:37:16.182Z,5.89
2019-02-07T00:37:47.887Z,5.92
2019-02-07T00:38:19.151Z,5.49
2019-02-07T00:38:50.394Z,5.95
2019-02-07T00:39:21.596Z,5.92
2019-02-07T00:39:52.811Z,5.92
2019-02-07T00:40:23.996Z,5.93
2019-02-07T00:40:55.199Z,5.97
2019-02-07T00:41:26.393Z,5.98
2019-02-07T00:41:57.862Z,6.00
2019-02-07T00:42:29.085Z,5.98
2019-02-07T00:43:00.290Z,6.02
2019-02-07T00:43:31.541Z,6.02
2019-02-07T00:44:02.830Z,6.01
2019-02-07T00:44:34.017Z,5.95
2019-02-07T00:45:05.223Z,5.96
2019-02-07T00:45:36.439Z,5.96
2019-02-07T00:46:07.640Z,5.97
2019-02-07T00:46:38.833Z,5.99
2019-02-07T00:47:10.039Z,5.99
2019-02-07T00:47:41.518Z,6.01
2019-02-07T00:48:12.781Z,6.02
2019-02-07T00:48:43.984Z,6.03
2019-02-07T00:49:15.191Z,6.03
2019-02-07T00:49:46.385Z,6.08
2019-02-07T00:50:17.603Z,6.13
2019-02-07T00:50:48.808Z,6.15
2019-02-07T00:51:20.011Z,6.17
2019-02-07T00:51:51.257Z,6.16
2019-02-07T00:52:22.499Z,6.16
2019-02-07T00:52:53.840Z,6.20
2019-02-07T00:53:25.430Z,6.33
2019-02-07T00:53:56.627Z,6.47
2019-02-07T00:54:27.820Z,6.49
2019-02-07T00:54:59.064Z,6.49
2019-02-07T00:55:30.326Z,6.49
2019-02-07T00:56:01.525Z,6.50
2019-02-07T00:56:32.727Z,6.48
2019-02-07T00:57:03.926Z,6.17
2019-02-07T00:57:35.198Z,6.45
2019-02-07T00:58:06.428Z,6.44
2019-02-07T00:58:37.628Z,6.40
2019-02-07T00:59:08.995Z,6.38
2019-02-07T00:59:40.229Z,6.36
2019-02-07T01:00:11.426Z,6.34
2019-02-07T01:00:42.630Z,6.33
2019-02-07T01:01:13.825Z,6.31
2019-02-07T01:01:45.051Z,6.28
2019-02-07T01:02:16.240Z,6.27
2019-02-07T01:02:47.502Z,6.27
2019-02-07T01:03:18.699Z,6.26
2019-02-07T01:03:49.918Z,6.25
2019-02-07T01:04:21.138Z,6.22
2019-02-07T01:04:52.797Z,6.17
2019-02-07T01:05:24.026Z,6.16
2019-02-07T01:05:55.232Z,6.14
2019-02-07T01:06:26.517Z,6.10
2019-02-07T01:06:57.724Z,6.07
2019-02-07T01:07:28.930Z,6.06
2019-02-07T01:08:00.161Z,6.02
2019-02-07T01:08:31.364Z,6.00
2019-02-07T01:09:02.581Z,5.99
2019-02-07T01:09:33.790Z,5.97
2019-02-07T01:10:05.001Z,6.00
2019-02-07T01:10:36.581Z,6.02
2019-02-07T01:11:07.788Z,6.04
2019-02-07T01:11:39.076Z,6.00
2019-02-07T01:12:10.298Z,5.97
2019-02-07T01:12:41.488Z,5.95
2019-02-07T01:13:12.756Z,5.91
2019-02-07T01:13:43.974Z,5.88
2019-02-07T01:14:15.171Z,5.83
2019-02-07T01:14:46.440Z,5.82
2019-02-07T01:15:17.646Z,5.84
2019-02-07T01:15:48.861Z,5.81
2019-02-07T01:16:20.444Z,5.80
2019-02-07T01:16:51.699Z,5.81
2019-02-07T01:17:22.924Z,5.83
2019-02-07T01:17:54.125Z,5.84
2019-02-07T01:18:25.321Z,5.83
2019-02-07T01:18:56.521Z,5.82
2019-02-07T01:19:27.736Z,5.81
2019-02-07T01:19:58.932Z,5.82
2019-02-07T01:20:30.146Z,5.84
2019-02-07T01:21:01.583Z,5.84
2019-02-07T01:21:32.783Z,5.82
2019-02-07T01:22:03.983Z,5.83
2019-02-07T01:22:35.190Z,5.84
2019-02-07T01:23:06.441Z,5.82
2019-02-07T01:23:37.653Z,5.80
2019-02-07T01:24:08.848Z,5.80
2019-02-07T01:24:40.042Z,5.80
2019-02-07T01:25:11.248Z,5.80
2019-02-07T01:25:42.503Z,5.81
2019-02-07T01:26:13.752Z,5.82
2019-02-07T01:26:45.233Z,5.82
2019-02-07T01:27:16.563Z,5.84
2019-02-07T01:27:47.763Z,5.87
2019-02-07T01:28:18.960Z,5.89
2019-02-07T01:28:50.182Z,5.89
2019-02-07T01:29:21.406Z,5.90
2019-02-07T01:29:52.601Z,5.92
2019-02-07T01:30:23.883Z,5.93
2019-02-07T01:30:55.246Z,5.95
2019-02-07T01:31:26.449Z,5.94
2019-02-07T01:31:57.667Z,5.93
2019-02-07T01:32:29.277Z,5.93
2019-02-07T01:33:00.512Z,5.93
2019-02-07T01:33:31.704Z,5.91
2019-02-07T01:34:02.929Z,5.89
2019-02-07T01:34:34.135Z,5.86
2019-02-07T01:35:05.374Z,5.82
2019-02-07T01:35:36.571Z,5.83
2019-02-07T01:36:07.770Z,5.82
2019-02-07T01:36:38.975Z,5.81
2019-02-07T01:37:10.210Z,5.80
2019-02-07T01:37:41.438Z,5.80
2019-02-07T01:38:13.170Z,5.79
2019-02-07T01:38:44.408Z,5.81
2019-02-07T01:39:15.675Z,5.81
2019-02-07T01:39:46.879Z,5.81
2019-02-07T01:40:18.188Z,5.82
2019-02-07T01:40:49.429Z,5.82
2019-02-07T01:41:20.638Z,5.83
2019-02-07T01:41:51.843Z,5.84
2019-02-07T01:42:23.038Z,5.88
2019-02-07T01:42:55.804Z,5.87
2019-02-07T01:43:27.230Z,5.88
2019-02-07T01:43:58.907Z,5.88
2019-02-07T01:44:30.106Z,5.87
2019-02-07T01:45:01.329Z,5.86
2019-02-07T01:45:32.586Z,5.87
2019-02-07T01:46:03.790Z,5.87
2019-02-07T01:46:35.019Z,5.88
2019-02-07T01:47:06.220Z,5.90
2019-02-07T01:47:38.302Z,5.87
2019-02-07T01:48:09.499Z,5.89
2019-02-07T01:48:40.725Z,5.87
2019-02-07T01:49:11.936Z,5.89
2019-02-07T01:49:43.419Z,5.92
2019-02-07T01:50:14.619Z,5.97
2019-02-07T01:50:45.884Z,5.98
2019-02-07T01:51:17.081Z,6.00
2019-02-07T01:51:48.285Z,6.01
2019-02-07T01:52:19.494Z,6.01
2019-02-07T01:52:50.712Z,6.02
2019-02-07T01:53:21.900Z,6.02
2019-02-07T01:53:53.105Z,6.05
2019-02-07T01:54:24.315Z,6.02
2019-02-07T01:54:55.544Z,6.01
2019-02-07T01:55:27.040Z,6.02
2019-02-07T01:55:58.864Z,6.03
2019-02-07T01:56:30.088Z,6.04
2019-02-07T01:57:01.308Z,6.02
2019-02-07T01:57:32.510Z,6.02
2019-02-07T01:58:04.308Z,6.02
2019-02-07T01:58:35.515Z,6.04
2019-02-07T01:59:06.724Z,6.02
2019-02-07T01:59:37.962Z,6.02
2019-02-07T02:00:09.174Z,5.99
2019-02-07T02:00:40.398Z,5.95
2019-02-07T02:01:12.145Z,5.94
2019-02-07T02:01:43.348Z,5.92
2019-02-07T02:02:14.565Z,5.90
2019-02-07T02:02:45.776Z,5.90
2019-02-07T02:03:16.987Z,5.87
2019-02-07T02:03:48.209Z,5.78
2019-02-07T02:04:19.491Z,5.74
2019-02-07T02:04:50.692Z,5.72
2019-02-07T02:05:21.904Z,5.72
2019-02-07T02:05:53.122Z,5.72
2019-02-07T02:06:26.263Z,5.76
2019-02-07T02:06:57.743Z,5.78
2019-02-07T02:07:28.951Z,5.82
2019-02-07T02:08:00.148Z,5.82
2019-02-07T02:08:31.367Z,5.84
2019-02-07T02:09:02.624Z,5.82
2019-02-07T02:09:33.834Z,5.81
2019-02-07T02:10:07.314Z,5.82
2019-02-07T02:10:38.576Z,5.83
2019-02-07T02:11:09.787Z,5.82
2019-02-07T02:11:40.997Z,5.83
2019-02-07T02:12:12.208Z,5.70
2019-02-07T02:12:43.688Z,5.67
2019-02-07T02:13:14.895Z,5.70
2019-02-07T02:13:46.102Z,5.70
2019-02-07T02:14:17.318Z,5.74
2019-02-07T02:14:48.527Z,5.81
2019-02-07T02:15:24.701Z,5.88
2019-02-07T02:15:52.712Z,5.95
2019-02-07T02:16:24.239Z,5.98
2019-02-07T02:16:55.595Z,5.93
2019-02-07T02:17:26.812Z,5.90
2019-02-07T02:17:58.021Z,5.86
2019-02-07T02:18:29.406Z,5.83
2019-02-07T02:19:00.612Z,5.83
2019-02-07T02:19:31.911Z,5.84
2019-02-07T02:20:03.127Z,5.82
2019-02-07T02:20:34.417Z,5.74
2019-02-07T02:21:05.622Z,5.73
2019-02-07T02:21:36.859Z,5.74
2019-02-07T02:22:08.057Z,5.78
2019-02-07T02:22:39.269Z,5.74
2019-02-07T02:23:10.479Z,5.74
2019-02-07T02:23:41.739Z,5.75
2019-02-07T02:24:13.215Z,5.74
2019-02-07T02:24:45.264Z,5.71
2019-02-07T02:25:16.605Z,5.70
2019-02-07T02:25:47.799Z,5.70
2019-02-07T02:26:19.022Z,5.77
2019-02-07T02:26:50.232Z,5.77
2019-02-07T02:27:21.456Z,5.63
2019-02-07T02:27:52.688Z,5.71
2019-02-07T02:28:23.950Z,5.81
2019-02-07T02:28:55.142Z,5.83
2019-02-07T02:29:26.362Z,5.83
2019-02-07T02:29:58.043Z,5.82
2019-02-07T02:30:29.238Z,5.83
2019-02-07T02:31:00.431Z,5.83
2019-02-07T02:31:31.632Z,5.83
2019-02-07T02:32:02.845Z,5.81
2019-02-07T02:32:34.050Z,5.81
2019-02-07T02:33:05.238Z,5.73
2019-02-07T02:33:36.495Z,5.79
2019-02-07T02:34:07.706Z,5.79
2019-02-07T02:34:38.880Z,5.79
2019-02-07T02:35:10.082Z,5.77
2019-02-07T02:35:41.612Z,5.80
2019-02-07T02:36:12.813Z,5.82
2019-02-07T02:36:44.022Z,5.90
2019-02-07T02:37:15.269Z,5.94
2019-02-07T02:37:46.470Z,5.95
2019-02-07T02:38:17.671Z,5.93
2019-02-07T02:38:48.864Z,5.91
2019-02-07T02:39:20.053Z,5.83
2019-02-07T02:39:51.293Z,5.80
2019-02-07T02:40:22.480Z,5.80
2019-02-07T02:40:53.673Z,5.76
2019-02-07T02:41:26.062Z,5.76
2019-02-07T02:41:57.299Z,5.77
2019-02-07T02:42:28.499Z,5.77
2019-02-07T02:42:59.763Z,5.73
2019-02-07T02:43:30.955Z,5.69
2019-02-07T02:44:02.175Z,5.68
2019-02-07T02:44:33.371Z,5.69
2019-02-07T02:45:04.598Z,5.69
2019-02-07T02:45:37.846Z,5.69
2019-02-07T02:46:08.739Z,5.64
2019-02-07T02:46:39.932Z,5.64
2019-02-07T02:47:11.424Z,5.64
2019-02-07T02:47:42.645Z,5.66
2019-02-07T02:48:13.895Z,5.66
2019-02-07T02:48:45.059Z,5.67
2019-02-07T02:49:17.275Z,5.65
2019-02-07T02:49:48.481Z,5.61
2019-02-07T02:50:19.686Z,5.57
2019-02-07T02:50:50.889Z,5.57
2019-02-07T02:51:22.086Z,5.58
2019-02-07T02:51:53.329Z,5.58
2019-02-07T02:52:24.529Z,5.60
2019-02-07T02:52:56.003Z,5.59
2019-02-07T02:53:27.215Z,5.58
2019-02-07T02:53:58.419Z,5.55
2019-02-07T02:54:29.629Z,5.55
2019-02-07T02:55:00.841Z,5.57
2019-02-07T02:55:32.094Z,5.54
2019-02-07T02:56:03.294Z,5.52
2019-02-07T02:56:34.567Z,5.49
2019-02-07T02:57:05.755Z,5.47
2019-02-07T02:57:36.959Z,5.45
2019-02-07T02:58:08.161Z,5.43
2019-02-07T02:58:39.736Z,5.38
2019-02-07T02:59:10.931Z,4.00
2019-02-07T02:59:42.145Z,5.39
2019-02-07T03:00:13.405Z,5.38
2019-02-07T03:00:44.606Z,5.37
2019-02-07T03:01:15.817Z,5.35
2019-02-07T03:01:47.043Z,5.31
2019-02-07T03:02:18.241Z,5.35
2019-02-07T03:02:49.457Z,5.39
2019-02-07T03:03:20.708Z,5.38
2019-02-07T03:03:51.916Z,5.38
2019-02-07T03:04:23.324Z,5.38
2019-02-07T03:04:54.514Z,5.41
2019-02-07T03:05:25.715Z,5.39
2019-02-07T03:05:56.925Z,5.39
2019-02-07T03:06:28.114Z,5.39
2019-02-07T03:06:59.325Z,5.40
2019-02-07T03:07:30.530Z,5.38
2019-02-07T03:08:01.796Z,5.39
2019-02-07T03:08:33.001Z,5.34
2019-02-07T03:09:04.212Z,5.34
2019-02-07T03:09:35.426Z,5.33
2019-02-07T03:10:07.003Z,5.33
2019-02-07T03:10:38.225Z,5.35
2019-02-07T03:11:09.418Z,5.40
2019-02-07T03:11:40.690Z,5.40
2019-02-07T03:12:11.892Z,5.38
2019-02-07T03:12:43.101Z,5.36
2019-02-07T03:13:14.345Z,5.32
2019-02-07T03:13:45.539Z,5.29
2019-02-07T03:14:16.742Z,5.30
2019-02-07T03:14:47.934Z,5.33
2019-02-07T03:15:19.139Z,5.36
2019-02-07T03:15:50.729Z,5.36
2019-02-07T03:16:21.932Z,5.32
2019-02-07T03:16:53.166Z,5.31
2019-02-07T03:17:24.418Z,5.34
2019-02-07T03:17:55.628Z,5.35
2019-02-07T03:18:26.887Z,5.35
2019-02-07T03:18:58.105Z,5.34
2019-02-07T03:19:29.303Z,5.33
2019-02-07T03:20:00.559Z,5.31
2019-02-07T03:20:31.894Z,5.32
2019-02-07T03:21:03.101Z,5.30
2019-02-07T03:21:34.583Z,5.29
2019-02-07T03:22:05.806Z,5.26
2019-02-07T03:22:37.026Z,5.24
2019-02-07T03:23:08.364Z,5.21
2019-02-07T03:23:39.549Z,5.21
2019-02-07T03:24:10.830Z,5.17
2019-02-07T03:24:42.030Z,5.17
2019-02-07T03:25:13.230Z,5.11
2019-02-07T03:25:44.439Z,5.10
2019-02-07T03:26:15.834Z,5.07
2019-02-07T03:26:47.109Z,5.06
2019-02-07T03:27:18.319Z,5.04
2019-02-07T03:27:49.546Z,5.04
2019-02-07T03:28:20.750Z,5.02
2019-02-07T03:28:51.970Z,4.98
2019-02-07T03:29:23.174Z,4.98
2019-02-07T03:29:54.442Z,4.98
2019-02-07T03:30:25.667Z,5.02
2019-02-07T03:30:56.890Z,5.02
2019-02-07T03:31:28.116Z,5.05
2019-02-07T03:31:59.500Z,5.05
2019-02-07T03:32:31.727Z,5.05
2019-02-07T03:33:02.955Z,5.05
2019-02-07T03:33:34.164Z,5.07
2019-02-07T03:34:05.391Z,5.09
2019-02-07T03:34:36.597Z,5.14
2019-02-07T03:35:07.835Z,5.15
2019-02-07T03:35:39.037Z,5.15
2019-02-07T03:36:10.310Z,5.13
2019-02-07T03:36:41.503Z,5.14
2019-02-07T03:37:12.750Z,5.16
2019-02-07T03:37:44.184Z,5.16
2019-02-07T03:38:15.389Z,5.15
2019-02-07T03:38:46.602Z,5.15
2019-02-07T03:39:17.830Z,5.15
2019-02-07T03:39:49.389Z,5.15
2019-02-07T03:40:20.898Z,5.14
2019-02-07T03:40:52.123Z,5.20
2019-02-07T03:41:23.352Z,5.19
2019-02-07T03:41:54.609Z,5.18
2019-02-07T03:42:25.825Z,5.16
2019-02-07T03:42:57.037Z,5.10
2019-02-07T03:43:28.534Z,5.07
2019-02-07T03:43:59.772Z,5.03
2019-02-07T03:44:30.982Z,5.01
2019-02-07T03:45:02.202Z,5.02
2019-02-07T03:45:33.423Z,5.01
2019-02-07T03:46:04.702Z,5.03
2019-02-07T03:46:35.925Z,5.04
2019-02-07T03:47:07.135Z,5.04
2019-02-07T03:47:38.354Z,5.00
2019-02-07T03:48:09.572Z,4.96
2019-02-07T03:48:40.829Z,4.97
2019-02-07T03:49:12.320Z,4.99
2019-02-07T03:49:43.528Z,5.03
2019-02-07T03:50:14.726Z,5.05
2019-02-07T03:50:45.934Z,5.03
2019-02-07T03:51:17.143Z,5.05
2019-02-07T03:51:48.351Z,5.03
2019-02-07T03:52:19.575Z,5.05
2019-02-07T03:52:50.770Z,5.07
2019-02-07T03:53:22.064Z,5.09
2019-02-07T03:53:53.289Z,5.09
2019-02-07T03:54:24.507Z,5.09
2019-02-07T03:54:56.172Z,5.10
2019-02-07T03:55:27.376Z,5.08
2019-02-07T03:55:58.582Z,5.10
2019-02-07T03:56:29.782Z,5.08
2019-02-07T03:57:00.976Z,5.11
2019-02-07T03:57:32.214Z,5.10
2019-02-07T03:58:03.400Z,5.14
2019-02-07T03:58:34.604Z,5.17
2019-02-07T03:59:05.874Z,5.20
2019-02-07T03:59:37.087Z,5.15
2019-02-07T04:00:08.281Z,5.12
2019-02-07T04:00:39.761Z,5.11
2019-02-07T04:01:10.997Z,5.10
2019-02-07T04:01:42.173Z,5.09
2019-02-07T04:02:13.375Z,5.09
2019-02-07T04:02:44.586Z,5.11
2019-02-07T04:03:15.850Z,5.15
2019-02-07T04:03:47.062Z,5.16
2019-02-07T04:04:18.254Z,5.17
2019-02-07T04:04:49.447Z,5.18
2019-02-07T04:05:20.649Z,5.21
2019-02-07T04:05:51.846Z,5.32
2019-02-07T04:06:23.532Z,5.36
2019-02-07T04:06:54.744Z,5.39
2019-02-07T04:07:25.952Z,5.39
2019-02-07T04:07:57.156Z,5.39
2019-02-07T04:08:28.415Z,5.39
2019-02-07T04:08:59.660Z,5.42
2019-02-07T04:09:30.862Z,5.44
2019-02-07T04:10:02.069Z,5.44
2019-02-07T04:10:33.285Z,5.46
2019-02-07T04:11:04.484Z,5.48
2019-02-07T04:11:35.701Z,5.47
2019-02-07T04:12:07.274Z,5.49
2019-02-07T04:12:38.475Z,5.46
2019-02-07T04:13:09.676Z,5.44
2019-02-07T04:13:40.889Z,5.45
2019-02-07T04:14:12.139Z,5.44
2019-02-07T04:14:43.386Z,5.44
2019-02-07T04:15:14.596Z,5.45
2019-02-07T04:15:45.807Z,5.46
2019-02-07T04:16:17.016Z,5.44
2019-02-07T04:16:48.213Z,5.44
2019-02-07T04:17:19.410Z,5.44
2019-02-07T04:17:50.980Z,5.44
2019-02-07T04:18:22.179Z,5.43
2019-02-07T04:18:53.382Z,5.40
2019-02-07T04:19:24.589Z,5.40
2019-02-07T04:19:55.825Z,5.38
2019-02-07T04:20:27.033Z,5.40
2019-02-07T04:20:58.276Z,5.40
2019-02-07T04:21:29.479Z,5.37
2019-02-07T04:22:00.675Z,5.36
2019-02-07T04:22:31.889Z,5.34
2019-02-07T04:23:03.086Z,5.38
2019-02-07T04:23:34.665Z,5.38
2019-02-07T04:24:05.853Z,5.36
2019-02-07T04:24:37.069Z,5.40
2019-02-07T04:25:08.277Z,5.47
2019-02-07T04:25:39.520Z,5.52
2019-02-07T04:26:10.729Z,5.51
2019-02-07T04:26:41.926Z,5.51
2019-02-07T04:27:13.122Z,5.52
2019-02-07T04:27:45.381Z,5.53
2019-02-07T04:28:16.601Z,5.54
2019-02-07T04:28:47.796Z,5.56
2019-02-07T04:29:19.303Z,5.57
2019-02-07T04:29:50.501Z,5.61
2019-02-07T04:30:21.748Z,5.61
2019-02-07T04:30:52.986Z,5.59
2019-02-07T04:31:24.202Z,5.58
2019-02-07T04:31:55.409Z,5.53
2019-02-07T04:32:26.607Z,5.55
2019-02-07T04:32:57.795Z,5.56
2019-02-07T04:33:28.993Z,5.56
2019-02-07T04:34:00.214Z,5.55
2019-02-07T04:34:31.420Z,5.56
2019-02-07T04:35:02.990Z,5.55
2019-02-07T04:35:34.198Z,5.53
2019-02-07T04:36:05.418Z,5.51
2019-02-07T04:36:36.648Z,5.48
2019-02-07T04:37:07.851Z,5.49
2019-02-07T04:37:39.067Z,5.51
2019-02-07T04:38:10.277Z,5.55
2019-02-07T04:38:41.546Z,5.56
2019-02-07T04:39:12.734Z,5.56
2019-02-07T04:39:43.942Z,5.55
2019-02-07T04:40:15.158Z,5.58
2019-02-07T04:40:46.688Z,5.57
2019-02-07T04:41:17.895Z,5.53
2019-02-07T04:41:49.122Z,5.51
2019-02-07T04:42:20.345Z,5.55
2019-02-07T04:42:51.569Z,5.62
2019-02-07T04:43:22.784Z,5.70
2019-02-07T04:43:54.060Z,5.75
2019-02-07T04:44:25.334Z,5.81
2019-02-07T04:44:56.542Z,5.83
2019-02-07T04:45:27.753Z,5.78
2019-02-07T04:45:58.948Z,5.74
2019-02-07T04:46:30.722Z,5.73
2019-02-07T04:47:01.932Z,5.71
2019-02-07T04:47:33.196Z,5.67
2019-02-07T04:48:04.413Z,5.67
2019-02-07T04:48:35.708Z,5.67
2019-02-07T04:49:06.869Z,5.65
2019-02-07T04:49:38.067Z,5.63
2019-02-07T04:50:09.263Z,5.62
2019-02-07T04:50:40.537Z,5.61
2019-02-07T04:51:11.752Z,5.62
2019-02-07T04:51:42.936Z,5.64
2019-02-07T04:52:14.544Z,5.57
2019-02-07T04:52:45.741Z,5.55
2019-02-07T04:53:16.947Z,5.53
2019-02-07T04:53:48.126Z,5.59
2019-02-07T04:54:19.329Z,5.62
2019-02-07T04:54:50.517Z,5.72
2019-02-07T04:55:21.713Z,5.72
2019-02-07T04:55:52.923Z,5.68
2019-02-07T04:56:24.134Z,5.61
2019-02-07T04:56:55.395Z,5.59
2019-02-07T04:57:26.598Z,5.54
2019-02-07T04:57:58.220Z,5.50
2019-02-07T04:58:29.428Z,5.47
2019-02-07T04:59:00.645Z,5.46
2019-02-07T04:59:31.877Z,5.42
2019-02-07T05:00:03.095Z,5.36
2019-02-07T05:00:34.304Z,5.35
2019-02-07T05:01:05.525Z,5.35
2019-02-07T05:01:36.727Z,5.32
2019-02-07T05:02:07.991Z,5.30
2019-02-07T05:02:39.192Z,5.31
2019-02-07T05:03:10.388Z,5.31
2019-02-07T05:03:41.980Z,5.31
2019-02-07T05:04:13.191Z,5.31
2019-02-07T05:04:44.405Z,5.34
2019-02-07T05:05:15.633Z,5.35
2019-02-07T05:05:46.830Z,5.36
2019-02-07T05:06:18.042Z,5.34
2019-02-07T05:06:49.254Z,5.35
2019-02-07T05:07:20.506Z,5.33
2019-02-07T05:07:51.707Z,5.29
2019-02-07T05:08:23.093Z,5.30
2019-02-07T05:08:54.369Z,5.34
2019-02-07T05:09:25.556Z,5.34
2019-02-07T05:09:56.762Z,5.34
2019-02-07T05:10:27.952Z,5.30
2019-02-07T05:10:59.136Z,5.27
2019-02-07T05:11:30.344Z,5.27
2019-02-07T05:12:01.547Z,5.25
2019-02-07T05:12:32.757Z,5.27
2019-02-07T05:13:03.949Z,5.29
2019-02-07T05:13:35.160Z,5.43
2019-02-07T05:14:06.780Z,5.47
2019-02-07T05:14:37.988Z,5.46
2019-02-07T05:15:09.193Z,5.40
2019-02-07T05:15:40.422Z,5.37
2019-02-07T05:16:11.624Z,5.37
2019-02-07T05:16:43.778Z,5.38
2019-02-07T05:17:15.103Z,5.37
2019-02-07T05:17:46.320Z,5.32
2019-02-07T05:18:17.576Z,5.25
2019-02-07T05:18:48.773Z,5.22
2019-02-07T05:19:19.971Z,5.28
2019-02-07T05:19:51.441Z,5.29
2019-02-07T05:20:22.690Z,5.29
2019-02-07T05:20:53.932Z,5.34
2019-02-07T05:21:25.145Z,5.39
2019-02-07T05:21:56.360Z,5.36
2019-02-07T05:22:27.607Z,5.41
2019-02-07T05:22:58.826Z,5.43
2019-02-07T05:23:30.024Z,5.41
2019-02-07T05:24:01.231Z,5.38
2019-02-07T05:24:32.429Z,5.37
2019-02-07T05:25:03.648Z,5.35
2019-02-07T05:25:35.177Z,5.35
2019-02-07T05:26:06.387Z,5.34
2019-02-07T05:26:37.603Z,5.24
2019-02-07T05:27:08.849Z,5.21
2019-02-07T05:27:40.080Z,5.18
2019-02-07T05:28:11.275Z,5.15
2019-02-07T05:28:42.409Z,5.15
2019-02-07T05:29:13.619Z,5.15
2019-02-07T05:29:44.815Z,5.15
2019-02-07T05:30:16.045Z,5.16
2019-02-07T05:30:47.251Z,5.15
2019-02-07T05:31:18.657Z,5.17
2019-02-07T05:31:49.873Z,5.15
2019-02-07T05:32:21.106Z,5.15
2019-02-07T05:32:52.322Z,5.16
2019-02-07T05:33:23.518Z,5.07
2019-02-07T05:33:55.661Z,5.04
2019-02-07T05:34:26.876Z,5.19
2019-02-07T05:34:58.113Z,5.22
2019-02-07T05:35:29.294Z,5.20
2019-02-07T05:36:00.518Z,5.20
2019-02-07T05:36:31.723Z,5.20
2019-02-07T05:37:03.203Z,5.24
2019-02-07T05:37:34.395Z,5.23
2019-02-07T05:38:05.589Z,5.21
2019-02-07T05:38:36.822Z,5.22
2019-02-07T05:39:08.059Z,5.25
2019-02-07T05:39:39.245Z,5.27
2019-02-07T05:40:10.443Z,5.27
2019-02-07T05:40:41.653Z,5.27
2019-02-07T05:41:12.865Z,5.26
2019-02-07T05:41:44.260Z,5.27
2019-02-07T05:42:15.460Z,5.29
2019-02-07T05:42:46.718Z,5.29
2019-02-07T05:43:17.922Z,5.27
2019-02-07T05:43:49.128Z,5.26
2019-02-07T05:44:20.329Z,5.26
2019-02-07T05:44:51.542Z,5.29
2019-02-07T05:45:22.751Z,5.31
2019-02-07T05:45:53.963Z,5.29
2019-02-07T05:46:25.147Z,5.23
2019-02-07T05:46:56.358Z,5.25
2019-02-07T05:47:27.834Z,5.26
2019-02-07T05:47:59.083Z,5.30
2019-02-07T05:48:30.410Z,5.33
2019-02-07T05:49:01.623Z,5.35
2019-02-07T05:49:32.831Z,5.35
2019-02-07T05:50:04.147Z,5.29
2019-02-07T05:50:35.353Z,5.29
2019-02-07T05:51:06.574Z,5.35
2019-02-07T05:51:37.775Z,5.38
2019-02-07T05:52:08.979Z,5.37
2019-02-07T05:52:40.178Z,5.35
2019-02-07T05:53:11.668Z,5.37
2019-02-07T05:53:42.916Z,5.36
2019-02-07T05:54:14.134Z,5.34
2019-02-07T05:54:45.331Z,5.30
2019-02-07T05:55:16.548Z,5.32
2019-02-07T05:55:47.758Z,5.34
2019-02-07T05:56:18.987Z,5.38
2019-02-07T05:56:50.195Z,5.38
2019-02-07T05:57:21.403Z,5.41
2019-02-07T05:57:52.602Z,5.40
2019-02-07T05:58:25.071Z,5.38
2019-02-07T05:58:59.133Z,5.37
2019-02-07T05:59:29.535Z,5.35
2019-02-07T06:00:00.757Z,5.29
2019-02-07T06:00:31.945Z,5.32
2019-02-07T06:01:03.143Z,5.32
2019-02-07T06:01:34.359Z,5.34
2019-02-07T06:02:05.566Z,5.34
2019-02-07T06:02:36.777Z,5.33
2019-02-07T06:03:07.974Z,5.33
2019-02-07T06:03:39.178Z,5.34
2019-02-07T06:04:11.296Z,5.33
2019-02-07T06:04:42.769Z,5.29
2019-02-07T06:05:13.988Z,5.28
2019-02-07T06:05:45.198Z,5.31
2019-02-07T06:06:16.407Z,5.32
2019-02-07T06:06:47.601Z,5.30
2019-02-07T06:07:18.800Z,5.32
2019-02-07T06:07:50.041Z,5.36
2019-02-07T06:08:21.258Z,5.36
2019-02-07T06:08:52.508Z,5.42
2019-02-07T06:09:23.736Z,5.43
2019-02-07T06:09:54.936Z,5.41
2019-02-07T06:10:26.410Z,5.43
2019-02-07T06:10:57.604Z,5.43
2019-02-07T06:11:28.852Z,5.41
2019-02-07T06:12:00.078Z,5.45
2019-02-07T06:12:31.350Z,5.44
2019-02-07T06:13:02.573Z,5.42
2019-02-07T06:13:33.778Z,5.40
2019-02-07T06:14:04.991Z,5.38
2019-02-07T06:14:36.203Z,5.39
2019-02-07T06:15:07.445Z,5.34
2019-02-07T06:15:38.630Z,5.26
2019-02-07T06:16:10.146Z,5.21
2019-02-07T06:16:41.346Z,5.21
2019-02-07T06:17:12.550Z,5.22
2019-02-07T06:17:43.820Z,5.22
2019-02-07T06:18:15.059Z,5.24
2019-02-07T06:18:46.262Z,5.23
2019-02-07T06:19:17.514Z,5.23
2019-02-07T06:19:48.757Z,5.24
2019-02-07T06:20:19.984Z,5.20
2019-02-07T06:20:51.208Z,5.15
2019-02-07T06:21:22.406Z,5.11
2019-02-07T06:21:53.904Z,5.12
2019-02-07T06:22:25.152Z,5.17
2019-02-07T06:22:56.364Z,5.20
2019-02-07T06:23:27.574Z,5.31
2019-02-07T06:23:58.792Z,5.32
2019-02-07T06:24:30.027Z,5.30
2019-02-07T06:25:01.236Z,5.27
2019-02-07T06:25:32.470Z,5.29
2019-02-07T06:26:03.700Z,5.28
2019-02-07T06:26:34.911Z,5.29
2019-02-07T06:27:06.270Z,5.29
2019-02-07T06:27:38.429Z,5.35
2019-02-07T06:28:09.643Z,5.33
2019-02-07T06:28:40.855Z,5.31
2019-02-07T06:29:12.054Z,5.32
2019-02-07T06:29:43.274Z,5.33
2019-02-07T06:30:14.458Z,5.36
2019-02-07T06:30:45.707Z,5.35
2019-02-07T06:31:16.915Z,5.32
2019-02-07T06:31:48.137Z,5.32
2019-02-07T06:32:19.359Z,5.36
2019-02-07T06:32:50.594Z,5.38
2019-02-07T06:33:22.066Z,4.48
2019-02-07T06:33:53.357Z,5.40
2019-02-07T06:34:29.065Z,5.40
2019-02-07T06:34:57.570Z,5.45
2019-02-07T06:35:28.784Z,5.45
2019-02-07T06:36:00.007Z,5.45
2019-02-07T06:36:31.222Z,5.46
2019-02-07T06:37:02.481Z,5.49
2019-02-07T06:37:33.702Z,5.49
2019-02-07T06:38:04.947Z,5.48
2019-02-07T06:38:36.194Z,5.48
2019-02-07T06:39:07.775Z,5.39
2019-02-07T06:39:39.035Z,5.30
2019-02-07T06:40:10.262Z,5.33
2019-02-07T06:40:41.489Z,5.38
2019-02-07T06:41:12.688Z,5.38
2019-02-07T06:41:43.913Z,5.36
2019-02-07T06:42:15.127Z,5.36
2019-02-07T06:42:46.345Z,5.39
2019-02-07T06:43:17.607Z,5.41
2019-02-07T06:43:48.837Z,5.43
2019-02-07T06:44:20.058Z,5.44
2019-02-07T06:44:51.565Z,5.53
2019-02-07T06:45:22.768Z,5.64
2019-02-07T06:45:53.981Z,5.78
2019-02-07T06:46:25.190Z,5.83
2019-02-07T06:46:56.488Z,5.85
2019-02-07T06:47:27.670Z,5.86
2019-02-07T06:47:58.881Z,5.87
2019-02-07T06:48:30.148Z,5.93
2019-02-07T06:49:01.363Z,5.93
2019-02-07T06:49:32.582Z,5.92
2019-02-07T06:50:03.813Z,6.00
2019-02-07T06:50:35.645Z,6.02
2019-02-07T06:51:06.857Z,6.02
2019-02-07T06:51:38.068Z,6.03
2019-02-07T06:52:09.287Z,6.04
2019-02-07T06:52:40.499Z,6.05
2019-02-07T06:53:11.700Z,5.52
2019-02-07T06:53:42.902Z,6.02
2019-02-07T06:54:14.130Z,6.00
2019-02-07T06:54:45.346Z,6.13
2019-02-07T06:55:16.562Z,4.82
2019-02-07T06:55:47.839Z,5.62
2019-02-07T06:56:19.513Z,6.49